ACA weather

General Juan N Alvarez International Airport
Acapulco, Guerrero, Mexico

Public forecast

Using degrees Celsius for public forecast. Weather courtesy of forecast.io.

Current aviation weather report (METAR) for General Juan N Alvarez International Airport

Retrieved 2019/11/21 13:46 UTC (1 hour ago):

MMAA 211346Z 06003KT 7SM FEW015TCU 26/24 A2993 RMK 8/200 HZY ISOL CI AC

Aviation forecast (TAF) for General Juan N Alvarez International Airport

Retrieved 2019/11/21 12:34 UTC (2 hours ago):

TAF MMAA 211131Z 2112/2218 36005KT 5SM HZ SCT015 BKN300 TX30/2119Z TN25/2112Z FM211600 23010KT P6SM SCT015 SCT300 FM220400 03005KT P6SM VC TS SCT015 SCT300 PROB40 2209/2213 4SM TSRA BKN015CB FM221500 23010KT P6SM SCT015 SCT300